Česky Dansk Deutsch English Español Suomi Français Magyar Italiano Nederlands norsk Polski Português svenska Türkçe

 

Het Weer

Lann Bihoue (Frankrijk)

13:00, 23 augustus 2016 (GMT)

NWNNE
WE
SWSSE
Home            
Lann Bihoue Quimper Lanveoc Poulmic Saint-Brieuc Morlaix / Ploujean Landivisiau Brest St-Nazaire Lannion / Servel Rennes Dinard Nantes Jersey Airport Guernsey Airport La Roche-Sur-Yon Angers Alderney / Channel Island La Rochelle Cherbourg / Maupertus Caen Le Mans Alencon Niort

Om een weerknop op uw website of weblog te plaatsen, copieer onderstaande code en plak die in uw pagina. In het eerste vakje staat HTML-code, in het tweede vakje UBB-code.


Add to Google

Details

Wind speed:3 bf, 8 kn, 4.1 m/s, 9.2 miles/h, 14.8 km/h
Wind direction:SSE, 150°
Visibility:Greater than 10000 m, 10 km, 32800 ft, 6.2 miles
Clouds:CAVOC
Temperature:29°C, 84°F
Gefühlte Temperatur:29°C, 84°F
Dew-point:15°C, 59°F
Atmospheric pressure:1019 hPa, 764.3 mmHg, 30.09 inHg, 1.006 atm
Relative humidity:42.6 %
METAR:LFRH 231300Z AUTO 15008KT CAVOK 29/15 Q1019 NOSIG

Snelkoppelingen

Actuele weersinformatie van de hele wereld. Voeg locaties toe met het plus (+) symbool. Deze snelkoppelingen kunnen worden toegevoegd aan Google.

Lid van de Technetium groep

website free tracking
StatCounter NetStat W3C Validator

23-10-2020 12:35:19
astro.technetium.be money.technetium.be phote.technetium.be tafeltennistafel.technetium.be www.ligfiets.net